createdAt,value
2022-09-14T00:02:09.558Z,99965.50
2022-09-14T00:05:11.540Z,99969.00
2022-09-14T00:08:14.047Z,99968.94
2022-09-14T00:11:15.765Z,99957.53
2022-09-14T00:14:19.416Z,99954.06
2022-09-14T00:17:20.984Z,99951.44
2022-09-14T00:20:22.830Z,99946.19
2022-09-14T00:23:24.442Z,99954.00
2022-09-14T00:26:26.600Z,99947.91
2022-09-14T00:29:28.711Z,99953.16
2022-09-14T00:32:30.287Z,99951.44
2022-09-14T00:35:35.419Z,99954.09
2022-09-14T00:38:38.597Z,99954.09
2022-09-14T00:41:44.523Z,99946.19
2022-09-14T00:44:46.058Z,99954.06
2022-09-14T00:47:51.146Z,99946.09
2022-09-14T00:50:54.146Z,99946.97
2022-09-14T00:53:56.096Z,99954.00
2022-09-14T00:57:01.693Z,99947.00
2022-09-14T01:00:06.272Z,99947.87
2022-09-14T01:03:07.864Z,99946.16
2022-09-14T01:06:51.348Z,99936.50
2022-09-14T01:10:22.913Z,99936.50
2022-09-14T01:13:47.440Z,99940.00
2022-09-14T01:16:49.034Z,99939.94
2022-09-14T01:20:02.960Z,99925.94
2022-09-14T01:23:35.666Z,99921.53
2022-09-14T01:26:49.273Z,99928.44
2022-09-14T01:30:24.343Z,99919.69
2022-09-14T01:33:37.228Z,99912.69
2022-09-14T01:36:43.095Z,99910.84
2022-09-14T01:39:50.796Z,99920.50
2022-09-14T01:42:59.545Z,99905.69
2022-09-14T01:46:08.964Z,99916.19
2022-09-14T01:49:19.036Z,99924.06
2022-09-14T01:52:26.817Z,99918.78
2022-09-14T01:55:35.348Z,99913.59
2022-09-14T01:58:43.855Z,99905.66
2022-09-14T02:01:50.890Z,99892.47
2022-09-14T02:05:14.470Z,99887.28
2022-09-14T02:08:16.712Z,99890.84
2022-09-14T02:11:18.579Z,99884.63
2022-09-14T02:14:20.475Z,99882.03
2022-09-14T02:17:22.881Z,99878.50
2022-09-14T02:20:46.958Z,99879.50
2022-09-14T02:23:49.241Z,99880.31
2022-09-14T02:26:52.488Z,99869.84
2022-09-14T02:29:54.362Z,99872.50
2022-09-14T02:33:25.292Z,99873.41
2022-09-14T02:36:45.474Z,99870.75
2022-09-14T02:40:05.801Z,99876.78
2022-09-14T02:43:22.798Z,99863.66
2022-09-14T02:46:50.454Z,99866.19
2022-09-14T02:50:41.921Z,99862.59
2022-09-14T02:54:24.979Z,99868.56
2022-09-14T02:57:27.078Z,99862.47
2022-09-14T03:00:31.195Z,99848.59
2022-09-14T03:03:35.768Z,99849.44
2022-09-14T03:06:37.895Z,99843.31
2022-09-14T03:09:40.460Z,99839.81
2022-09-14T03:12:42.022Z,99834.50
2022-09-14T03:15:43.875Z,99830.12
2022-09-14T03:18:46.181Z,99838.81
2022-09-14T03:21:47.796Z,99834.16
2022-09-14T03:24:49.674Z,99828.22
2022-09-14T03:27:53.282Z,99816.94
2022-09-14T03:30:55.567Z,99822.12
2022-09-14T03:33:59.781Z,99830.84
2022-09-14T03:37:01.361Z,99818.56
2022-09-14T03:40:03.617Z,99815.09
2022-09-14T03:43:05.246Z,99814.12
2022-09-14T03:46:12.931Z,99825.50
2022-09-14T03:49:14.630Z,99826.25
2022-09-14T03:52:17.444Z,99835.09
2022-09-14T03:55:19.715Z,99826.41
2022-09-14T03:58:21.402Z,99829.03
2022-09-14T04:01:23.795Z,99832.47
2022-09-14T04:04:25.821Z,99827.16
2022-09-14T04:07:27.896Z,99822.81
2022-09-14T04:10:29.639Z,99822.84
2022-09-14T04:13:31.220Z,99813.19
2022-09-14T04:16:33.263Z,99805.28
2022-09-14T04:19:37.551Z,99807.19
2022-09-14T04:22:39.206Z,99803.75
2022-09-14T04:25:41.136Z,99820.25
2022-09-14T04:28:43.386Z,99819.44
2022-09-14T04:31:45.032Z,99819.53
2022-09-14T04:34:48.595Z,99816.06
2022-09-14T04:37:50.501Z,99823.91
2022-09-14T04:40:52.184Z,99830.94
2022-09-14T04:43:55.342Z,99830.16
2022-09-14T04:46:57.266Z,99825.84
2022-09-14T04:49:58.984Z,99829.38
2022-09-14T04:53:00.765Z,99816.22
2022-09-14T04:56:05.213Z,99806.69
2022-09-14T04:59:07.819Z,99805.88
2022-09-14T05:02:09.486Z,99793.63
2022-09-14T05:05:11.326Z,99790.16
2022-09-14T05:08:13.145Z,99802.41
2022-09-14T05:11:20.429Z,99798.94
2022-09-14T05:14:21.993Z,99791.09
2022-09-14T05:17:23.565Z,99789.38
2022-09-14T05:20:25.433Z,99792.00
2022-09-14T05:23:27.062Z,99795.50
2022-09-14T05:26:31.229Z,99806.94
2022-09-14T05:29:32.920Z,99805.16
2022-09-14T05:32:34.871Z,99806.88
2022-09-14T05:35:36.529Z,99804.25
2022-09-14T05:38:39.828Z,99793.63
2022-09-14T05:41:41.408Z,99793.53
2022-09-14T05:44:43.184Z,99790.84
2022-09-14T05:47:44.933Z,99776.78
2022-09-14T05:50:47.135Z,99777.50
2022-09-14T05:53:54.400Z,99777.44
2022-09-14T05:56:55.924Z,99772.22
2022-09-14T05:59:57.799Z,99766.94
2022-09-14T06:02:59.379Z,99778.34
2022-09-14T06:06:01.367Z,99779.09
2022-09-14T06:09:04.003Z,99781.59
2022-09-14T06:12:05.964Z,99788.56
2022-09-14T06:15:08.281Z,99789.38
2022-09-14T06:18:09.898Z,99784.97
2022-09-14T06:21:15.337Z,99766.53
2022-09-14T06:24:17.023Z,99755.03
2022-09-14T06:27:18.920Z,99750.50
2022-09-14T06:30:21.152Z,99756.47
2022-09-14T06:33:23.497Z,99768.69
2022-09-14T06:36:27.176Z,99780.97
2022-09-14T06:39:29.038Z,99778.28
2022-09-14T06:42:31.225Z,99788.81
2022-09-14T06:45:33.179Z,99783.19
2022-09-14T06:48:41.200Z,99785.47
2022-09-14T06:51:45.593Z,99787.06
2022-09-14T06:54:47.236Z,99784.31
2022-09-14T06:57:49.379Z,99779.03
2022-09-14T07:00:50.976Z,99775.06
2022-09-14T07:03:53.865Z,99758.22
2022-09-14T07:06:55.460Z,99761.66
2022-09-14T07:09:57.029Z,99768.84
2022-09-14T07:13:00.030Z,99767.53
2022-09-14T07:16:03.441Z,99772.34
2022-09-14T07:19:07.665Z,99770.16
2022-09-14T07:22:09.225Z,99778.53
2022-09-14T07:25:11.121Z,99773.81
2022-09-14T07:28:12.815Z,99772.53
2022-09-14T07:31:25.001Z,99778.75
2022-09-14T07:34:26.673Z,99789.38
2022-09-14T07:37:29.962Z,99790.19
2022-09-14T07:40:32.128Z,99779.31
2022-09-14T07:43:34.008Z,99781.03
2022-09-14T07:46:41.963Z,99773.75
2022-09-14T07:49:43.594Z,99768.41
2022-09-14T07:52:45.276Z,99765.25
2022-09-14T07:55:47.370Z,99767.88
2022-09-14T07:58:55.488Z,99771.13
2022-09-14T08:02:00.356Z,99763.38
2022-09-14T08:05:02.409Z,99761.94
2022-09-14T08:08:04.099Z,99765.09
2022-09-14T08:11:29.703Z,99769.56
2022-09-14T08:14:31.694Z,99754.16
2022-09-14T08:17:33.307Z,99742.47
2022-09-14T08:20:35.005Z,99756.28
2022-09-14T08:23:37.370Z,99762.91
2022-09-14T08:26:40.835Z,99759.44
2022-09-14T08:29:42.650Z,99772.91
2022-09-14T08:32:45.877Z,99772.09
2022-09-14T08:35:57.920Z,99765.25
2022-09-14T08:39:00.826Z,99758.91
2022-09-14T08:42:06.134Z,99749.87
2022-09-14T08:45:09.839Z,99752.19
2022-09-14T08:48:26.952Z,99750.34
2022-09-14T08:51:29.177Z,99737.19
2022-09-14T08:54:32.888Z,99737.31
2022-09-14T08:57:58.136Z,99722.41
2022-09-14T09:01:16.639Z,99713.25
2022-09-14T09:04:46.545Z,99706.81
2022-09-14T09:08:33.065Z,99709.56
2022-09-14T09:11:41.545Z,99718.00
2022-09-14T09:14:54.641Z,99715.75
2022-09-14T09:18:06.759Z,99720.56
2022-09-14T09:21:22.170Z,99717.44
2022-09-14T09:24:37.537Z,99710.81
2022-09-14T09:27:39.356Z,99702.75
2022-09-14T09:30:41.637Z,99711.56
2022-09-14T09:33:50.862Z,99707.44
2022-09-14T09:36:53.649Z,99703.19
2022-09-14T09:39:55.394Z,99700.22
2022-09-14T09:43:07.116Z,99699.34
2022-09-14T09:46:09.136Z,99703.37
2022-09-14T09:49:25.755Z,99708.31
2022-09-14T09:52:28.872Z,99703.06
2022-09-14T09:55:37.682Z,99700.72
2022-09-14T09:58:39.709Z,99701.13
2022-09-14T10:01:41.661Z,99694.69
2022-09-14T10:05:28.946Z,99696.66
2022-09-14T10:08:34.962Z,99692.00
2022-09-14T10:11:38.454Z,99704.94
2022-09-14T10:14:41.027Z,99712.06
2022-09-14T10:18:13.587Z,99714.06
2022-09-14T10:21:20.632Z,99718.59
2022-09-14T10:24:22.201Z,99719.37
2022-09-14T10:27:42.005Z,99724.69
2022-09-14T10:30:51.181Z,99717.28
2022-09-14T10:33:56.595Z,99725.16
2022-09-14T10:37:11.760Z,99721.66
2022-09-14T10:40:24.568Z,99725.50
2022-09-14T10:44:02.382Z,99720.38
2022-09-14T10:47:10.004Z,99726.59
2022-09-14T10:50:25.059Z,99729.06
2022-09-14T10:53:39.299Z,99728.78
2022-09-14T10:57:03.817Z,99734.66
2022-09-14T11:00:13.204Z,99740.94
2022-09-14T11:03:45.827Z,99724.34
2022-09-14T11:07:29.999Z,99716.59
2022-09-14T11:10:58.055Z,99726.28
2022-09-14T11:14:28.310Z,99728.75
2022-09-14T11:17:57.798Z,99723.91
2022-09-14T11:21:11.812Z,99716.81
2022-09-14T11:24:33.535Z,99710.97
2022-09-14T11:27:55.448Z,99709.38
2022-09-14T11:31:12.424Z,99713.47
2022-09-14T11:34:26.109Z,99712.94
2022-09-14T11:37:42.680Z,99709.72
2022-09-14T11:41:07.713Z,99714.19
2022-09-14T11:44:21.496Z,99700.34
2022-09-14T11:47:25.048Z,99700.00
2022-09-14T11:50:30.112Z,99690.47
2022-09-14T11:53:33.657Z,99680.19
2022-09-14T11:56:35.649Z,99677.94
2022-09-14T11:59:40.281Z,99679.84
2022-09-14T12:02:43.098Z,99678.16
2022-09-14T12:05:46.280Z,99681.06
2022-09-14T12:08:48.008Z,99681.06
2022-09-14T12:11:51.997Z,99683.22
2022-09-14T12:14:59.718Z,99669.16
2022-09-14T12:18:01.227Z,99662.31
2022-09-14T12:21:08.074Z,99654.31
2022-09-14T12:24:15.578Z,99656.38
2022-09-14T12:27:23.257Z,99648.47
2022-09-14T12:30:40.912Z,99643.19
2022-09-14T12:33:45.460Z,99634.91
2022-09-14T12:36:47.024Z,99635.78
2022-09-14T12:40:24.538Z,99641.97
2022-09-14T12:43:35.215Z,99640.50
2022-09-14T12:46:38.974Z,99638.69
2022-09-14T12:49:41.373Z,99632.66
2022-09-14T12:52:52.243Z,99627.37
2022-09-14T12:56:00.844Z,99629.09
2022-09-14T12:59:07.299Z,99621.81
2022-09-14T13:02:27.631Z,99611.56
2022-09-14T13:05:32.239Z,99599.50
2022-09-14T13:08:34.821Z,99600.00
2022-09-14T13:11:40.387Z,99601.44
2022-09-14T13:14:44.716Z,99593.16
2022-09-14T13:18:18.127Z,99586.94
2022-09-14T13:21:22.411Z,99578.44
2022-09-14T13:24:38.845Z,99585.88
2022-09-14T13:27:40.460Z,99579.38
2022-09-14T13:30:43.181Z,99568.84
2022-09-14T13:33:53.125Z,99567.34
2022-09-14T13:36:56.256Z,99571.00
2022-09-14T13:39:59.851Z,99553.34
2022-09-14T13:43:02.308Z,99558.22
2022-09-14T13:46:08.123Z,99551.66
2022-09-14T13:49:12.400Z,99548.28
2022-09-14T13:53:02.554Z,99552.88
2022-09-14T13:56:22.854Z,99541.69
2022-09-14T13:59:24.557Z,99554.88
2022-09-14T14:02:27.940Z,99546.09
2022-09-14T14:05:40.061Z,99549.97
2022-09-14T14:08:41.675Z,99555.75
2022-09-14T14:11:51.872Z,99554.44
2022-09-14T14:14:57.007Z,99559.28
2022-09-14T14:17:58.613Z,99562.88
2022-09-14T14:21:14.936Z,99556.22
2022-09-14T14:24:26.852Z,99557.72
2022-09-14T14:27:33.058Z,99547.97
2022-09-14T14:30:40.296Z,99542.41
2022-09-14T14:33:53.444Z,99538.59
2022-09-14T14:36:55.961Z,99537.03
2022-09-14T14:39:57.799Z,99542.44
2022-09-14T14:43:03.770Z,99537.66
2022-09-14T14:46:07.442Z,99532.69
2022-09-14T14:49:17.411Z,99525.34
2022-09-14T14:52:19.926Z,99534.00
2022-09-14T14:55:23.424Z,99533.41
2022-09-14T14:58:25.154Z,99533.84
2022-09-14T15:01:26.904Z,99527.44
2022-09-14T15:04:28.720Z,99528.25
2022-09-14T15:07:30.419Z,99525.12
2022-09-14T15:10:32.333Z,99513.63
2022-09-14T15:13:33.919Z,99526.19
2022-09-14T15:16:35.518Z,99512.81
2022-09-14T15:19:37.336Z,99512.75
2022-09-14T15:22:42.842Z,99509.72
2022-09-14T15:25:44.825Z,99508.19
2022-09-14T15:28:48.463Z,99510.84
2022-09-14T15:31:50.314Z,99516.72
2022-09-14T15:34:53.827Z,99521.41
2022-09-14T15:37:55.576Z,99512.38
2022-09-14T15:40:57.430Z,99518.44
2022-09-14T15:43:59.535Z,99522.81
2022-09-14T15:47:01.428Z,99528.78
2022-09-14T15:50:04.330Z,99529.53
2022-09-14T15:53:05.909Z,99537.53
2022-09-14T15:56:12.278Z,99522.03
2022-09-14T15:59:14.121Z,99507.97
2022-09-14T16:02:17.689Z,99500.34
2022-09-14T16:05:19.599Z,99486.84
2022-09-14T16:08:21.398Z,99479.25
2022-09-14T16:11:24.115Z,99468.97
2022-09-14T16:14:25.715Z,99453.19
2022-09-14T16:17:27.300Z,99447.75
2022-09-14T16:20:29.366Z,99443.88
2022-09-14T16:23:32.519Z,99441.91
2022-09-14T16:26:36.834Z,99443.75
2022-09-14T16:29:40.682Z,99450.81
2022-09-14T16:32:42.442Z,99455.47
2022-09-14T16:35:44.036Z,99452.34
2022-09-14T16:38:45.796Z,99450.94
2022-09-14T16:41:47.440Z,99459.53
2022-09-14T16:44:49.379Z,99462.53
2022-09-14T16:47:52.068Z,99472.25
2022-09-14T16:50:54.343Z,99475.09
2022-09-14T16:53:57.520Z,99479.41
2022-09-14T16:57:01.083Z,99496.28
2022-09-14T17:00:04.386Z,99481.06
2022-09-14T17:03:05.985Z,99478.53
2022-09-14T17:06:11.174Z,99490.72
2022-09-14T17:09:23.324Z,99493.09
2022-09-14T17:12:25.200Z,99486.72
2022-09-14T17:15:26.793Z,99484.34
2022-09-14T17:18:29.107Z,99486.03
2022-09-14T17:21:38.323Z,99479.66
2022-09-14T17:24:40.363Z,99471.00
2022-09-14T17:27:42.218Z,99474.03
2022-09-14T17:30:44.075Z,99462.47
2022-09-14T17:33:47.372Z,99459.75
2022-09-14T17:36:49.031Z,99458.03
2022-09-14T17:39:50.940Z,99453.88
2022-09-14T17:42:52.650Z,99436.97
2022-09-14T17:45:56.732Z,99432.13
2022-09-14T17:48:59.781Z,99434.88
2022-09-14T17:52:02.252Z,99443.72
2022-09-14T17:55:04.501Z,99433.16
2022-09-14T17:58:06.303Z,99440.53
2022-09-14T18:01:14.052Z,99440.75
2022-09-14T18:04:17.107Z,99424.97
2022-09-14T18:07:19.034Z,99415.25
2022-09-14T18:10:21.104Z,99408.41
2022-09-14T18:13:23.170Z,99412.09
2022-09-14T18:16:26.182Z,99405.81
2022-09-14T18:19:28.190Z,99411.75
2022-09-14T18:22:30.085Z,99414.22
2022-09-14T18:25:32.570Z,99412.47
2022-09-14T18:28:35.924Z,99417.44
2022-09-14T18:31:38.566Z,99422.56
2022-09-14T18:34:40.818Z,99430.50
2022-09-14T18:37:42.859Z,99440.47
2022-09-14T18:40:45.051Z,99436.22
2022-09-14T18:43:50.366Z,99442.72
2022-09-14T18:46:52.824Z,99449.47
2022-09-14T18:49:55.062Z,99449.03
2022-09-14T18:52:57.300Z,99444.59
2022-09-14T18:56:07.881Z,99456.44
2022-09-14T18:59:13.502Z,99461.00
2022-09-14T19:02:15.718Z,99454.56
2022-09-14T19:05:17.489Z,99459.53
2022-09-14T19:08:19.906Z,99447.09
2022-09-14T19:11:24.128Z,99443.50
2022-09-14T19:14:26.355Z,99426.91
2022-09-14T19:17:28.558Z,99417.19
2022-09-14T19:20:48.666Z,99411.97
2022-09-14T19:24:11.296Z,99414.72
2022-09-14T19:27:13.540Z,99406.66
2022-09-14T19:30:16.421Z,99405.03
2022-09-14T19:33:18.592Z,99399.69
2022-09-14T19:36:22.575Z,99396.34
2022-09-14T19:39:26.052Z,99392.66
2022-09-14T19:42:28.077Z,99391.72
2022-09-14T19:45:30.976Z,99392.31
2022-09-14T19:48:34.176Z,99395.47
2022-09-14T19:51:36.291Z,99393.66
2022-09-14T19:54:38.447Z,99385.00
2022-09-14T19:57:40.641Z,99388.44
2022-09-14T20:00:42.272Z,99404.19
2022-09-14T20:03:45.713Z,99402.09
2022-09-14T20:06:48.610Z,99398.25
2022-09-14T20:09:50.664Z,99409.78
2022-09-14T20:12:54.733Z,99414.28
2022-09-14T20:15:56.962Z,99411.25
2022-09-14T20:19:02.455Z,99402.16
2022-09-14T20:22:04.984Z,99398.41
2022-09-14T20:25:08.123Z,99397.59
2022-09-14T20:28:10.375Z,99406.06
2022-09-14T20:31:13.775Z,99417.25
2022-09-14T20:34:18.181Z,99409.44
2022-09-14T20:37:19.756Z,99406.50
2022-09-14T20:40:21.753Z,99403.91
2022-09-14T20:43:23.882Z,99406.25
2022-09-14T20:46:31.057Z,99392.84
2022-09-14T20:49:33.021Z,99383.81
2022-09-14T20:52:36.236Z,99374.75
2022-09-14T20:55:37.861Z,99379.78
2022-09-14T20:58:41.104Z,99370.25
2022-09-14T21:01:44.926Z,99369.37
2022-09-14T21:04:47.290Z,99380.72
2022-09-14T21:07:56.105Z,99367.75
2022-09-14T21:11:02.203Z,99386.38
2022-09-14T21:14:04.262Z,99380.59
2022-09-14T21:17:05.900Z,99366.63
2022-09-14T21:20:08.782Z,99368.34
2022-09-14T21:23:10.453Z,99367.13
2022-09-14T21:26:12.955Z,99370.75
2022-09-14T21:29:24.797Z,99370.66
2022-09-14T21:32:26.475Z,99372.47
2022-09-14T21:35:33.420Z,99366.97
2022-09-14T21:38:35.550Z,99369.50
2022-09-14T21:41:38.847Z,99371.84
2022-09-14T21:44:40.419Z,99372.94
2022-09-14T21:47:42.001Z,99364.06
2022-09-14T21:50:47.274Z,99361.72
2022-09-14T21:53:50.567Z,99359.69
2022-09-14T21:56:52.973Z,99365.53
2022-09-14T21:59:54.939Z,99361.03
2022-09-14T22:02:56.639Z,99348.44
2022-09-14T22:06:04.587Z,99354.41
2022-09-14T22:09:07.175Z,99348.88
2022-09-14T22:12:09.052Z,99349.66
2022-09-14T22:15:11.141Z,99350.56
2022-09-14T22:18:14.726Z,99351.31
2022-09-14T22:21:17.490Z,99350.38
2022-09-14T22:24:22.911Z,99353.81
2022-09-14T22:27:24.572Z,99348.59
2022-09-14T22:30:26.422Z,99343.16
2022-09-14T22:33:29.224Z,99333.72
2022-09-14T22:36:31.178Z,99334.66
2022-09-14T22:39:33.081Z,99339.66
2022-09-14T22:42:36.718Z,99338.28
2022-09-14T22:45:38.355Z,99342.47
2022-09-14T22:48:41.026Z,99348.81
2022-09-14T22:51:42.708Z,99343.41
2022-09-14T22:54:44.283Z,99338.94
2022-09-14T22:57:46.100Z,99338.22
2022-09-14T23:00:48.719Z,99328.69
2022-09-14T23:03:55.594Z,99331.13
2022-09-14T23:07:00.085Z,99327.66
2022-09-14T23:10:01.932Z,99317.94
2022-09-14T23:13:03.945Z,99320.47
2022-09-14T23:16:18.151Z,99314.50
2022-09-14T23:19:20.070Z,99310.28
2022-09-14T23:22:22.270Z,99310.19
2022-09-14T23:25:24.021Z,99304.31
2022-09-14T23:28:25.614Z,99303.19
2022-09-14T23:31:29.138Z,99314.59
2022-09-14T23:34:31.054Z,99307.31
2022-09-14T23:37:33.712Z,99302.63
2022-09-14T23:40:35.291Z,99304.97
2022-09-14T23:43:37.077Z,99297.66
2022-09-14T23:46:38.750Z,99281.50
2022-09-14T23:49:40.636Z,99278.88
2022-09-14T23:52:42.366Z,99278.59
2022-09-14T23:55:44.123Z,99283.84
2022-09-14T23:58:45.924Z,99286.31
